createdAt,value
2022-10-29T00:01:15.575Z,12.99
2022-10-29T00:03:44.110Z,13.01
2022-10-29T00:06:13.533Z,13.03
2022-10-29T00:08:43.010Z,13.06
2022-10-29T00:11:15.598Z,13.08
2022-10-29T00:13:44.669Z,13.08
2022-10-29T00:16:20.397Z,13.08
2022-10-29T00:18:48.932Z,13.05
2022-10-29T00:21:20.088Z,13.04
2022-10-29T00:23:49.162Z,13.01
2022-10-29T00:26:19.033Z,12.96
2022-10-29T00:28:47.882Z,12.90
2022-10-29T00:31:20.153Z,12.83
2022-10-29T00:33:48.880Z,12.79
2022-10-29T00:36:20.056Z,12.76
2022-10-29T00:38:48.865Z,12.71
2022-10-29T00:41:20.071Z,12.62
2022-10-29T00:43:51.253Z,12.56
2022-10-29T00:46:35.149Z,12.49
2022-10-29T00:49:04.741Z,12.44
2022-10-29T00:51:34.287Z,12.38
2022-10-29T00:54:09.544Z,12.32
2022-10-29T00:56:42.426Z,12.25
2022-10-29T00:59:11.308Z,12.18
2022-10-29T01:01:40.523Z,12.11
2022-10-29T01:04:11.561Z,12.03
2022-10-29T01:06:41.979Z,11.95
2022-10-29T01:09:10.653Z,11.85
2022-10-29T01:12:13.266Z,11.77
2022-10-29T01:14:41.842Z,11.66
2022-10-29T01:17:40.441Z,11.58
2022-10-29T01:20:46.545Z,11.46
2022-10-29T01:23:41.179Z,11.36
2022-10-29T01:26:26.215Z,11.27
2022-10-29T01:29:22.990Z,11.19
2022-10-29T01:32:11.716Z,11.10
2022-10-29T01:35:14.233Z,11.03
2022-10-29T01:37:42.872Z,10.99
2022-10-29T01:40:34.448Z,10.96
2022-10-29T01:43:49.280Z,10.94
2022-10-29T01:46:23.180Z,10.93
2022-10-29T01:49:00.414Z,10.93
2022-10-29T01:51:32.304Z,10.93
2022-10-29T01:54:02.922Z,10.94
2022-10-29T01:56:31.547Z,10.97
2022-10-29T01:59:02.226Z,10.99
2022-10-29T02:02:08.956Z,11.00
2022-10-29T02:04:49.176Z,11.00
2022-10-29T02:07:23.426Z,10.98
2022-10-29T02:09:54.944Z,10.97
2022-10-29T02:12:38.094Z,10.95
2022-10-29T02:15:09.622Z,10.95
2022-10-29T02:17:38.435Z,10.95
2022-10-29T02:20:09.631Z,10.96
2022-10-29T02:22:38.269Z,10.98
2022-10-29T02:25:08.944Z,10.99
2022-10-29T02:27:37.634Z,11.01
2022-10-29T02:32:49.032Z,11.01
2022-10-29T02:35:17.380Z,11.01
2022-10-29T02:37:46.380Z,11.01
2022-10-29T02:40:15.209Z,11.03
2022-10-29T02:42:43.871Z,11.05
2022-10-29T02:45:12.239Z,11.06
2022-10-29T02:47:40.900Z,11.08
2022-10-29T02:50:10.087Z,11.09
2022-10-29T02:52:38.908Z,11.10
2022-10-29T02:55:07.989Z,11.10
2022-10-29T02:57:37.016Z,11.11
2022-10-29T03:00:06.995Z,11.11
2022-10-29T03:02:35.499Z,11.11
2022-10-29T03:05:04.229Z,11.12
2022-10-29T03:07:38.546Z,11.13
2022-10-29T03:10:08.508Z,11.14
2022-10-29T03:12:36.802Z,11.16
2022-10-29T03:15:05.177Z,11.18
2022-10-29T03:17:33.773Z,11.18
2022-10-29T03:20:02.156Z,11.20
2022-10-29T03:22:30.978Z,11.22
2022-10-29T03:25:00.169Z,11.24
2022-10-29T03:27:28.701Z,11.26
2022-10-29T03:29:56.913Z,11.28
2022-10-29T03:32:25.116Z,11.28
2022-10-29T03:34:57.408Z,11.29
2022-10-29T03:37:28.067Z,11.29
2022-10-29T03:39:56.358Z,11.30
2022-10-29T03:42:24.656Z,11.33
2022-10-29T03:44:53.546Z,11.34
2022-10-29T03:47:22.174Z,11.35
2022-10-29T03:49:50.707Z,11.36
2022-10-29T03:52:19.444Z,11.36
2022-10-29T03:54:48.046Z,11.36
2022-10-29T03:57:16.184Z,11.37
2022-10-29T03:59:46.001Z,11.37
2022-10-29T04:02:17.245Z,11.37
2022-10-29T04:04:45.496Z,11.35
2022-10-29T04:07:13.801Z,11.36
2022-10-29T04:09:42.363Z,11.36
2022-10-29T04:12:10.985Z,11.36
2022-10-29T04:14:44.492Z,11.38
2022-10-29T04:17:14.466Z,11.39
2022-10-29T04:19:43.249Z,11.39
2022-10-29T04:28:41.872Z,11.40
2022-10-29T04:30:36.724Z,11.41
2022-10-29T04:33:05.088Z,11.42
2022-10-29T04:35:33.191Z,11.43
2022-10-29T04:38:08.579Z,11.45
2022-10-29T04:40:37.355Z,11.46
2022-10-29T04:43:05.882Z,11.47
2022-10-29T04:45:34.586Z,11.47
2022-10-29T04:48:04.187Z,11.47
2022-10-29T04:50:33.231Z,11.45
2022-10-29T04:53:02.976Z,11.44
2022-10-29T04:55:31.804Z,11.43
2022-10-29T04:58:00.089Z,11.43
2022-10-29T05:00:28.430Z,11.44
2022-10-29T05:02:56.820Z,11.44
2022-10-29T05:05:25.439Z,11.44
2022-10-29T05:08:04.504Z,11.44
2022-10-29T05:10:36.426Z,11.44
2022-10-29T05:13:11.930Z,11.44
2022-10-29T05:15:41.035Z,11.44
2022-10-29T05:18:10.778Z,11.44
2022-10-29T05:20:38.886Z,11.45
2022-10-29T05:23:09.616Z,11.46
2022-10-29T05:25:39.697Z,11.47
2022-10-29T05:28:16.246Z,11.50
2022-10-29T05:30:44.849Z,11.51
2022-10-29T05:33:15.852Z,11.51
2022-10-29T05:35:45.022Z,11.51
2022-10-29T05:38:14.870Z,11.50
2022-10-29T05:40:45.860Z,11.48
2022-10-29T05:43:15.672Z,11.45
2022-10-29T05:45:44.640Z,11.43
2022-10-29T05:48:14.061Z,11.41
2022-10-29T05:50:42.830Z,11.39
2022-10-29T05:53:14.582Z,11.38
2022-10-29T05:55:43.864Z,11.35
2022-10-29T05:58:14.784Z,11.33
2022-10-29T06:00:45.279Z,11.30
2022-10-29T06:03:19.319Z,11.27
2022-10-29T06:08:33.075Z,11.20
2022-10-29T06:11:05.090Z,11.17
2022-10-29T06:13:33.505Z,11.15
2022-10-29T06:16:02.366Z,11.14
2022-10-29T06:18:31.166Z,11.12
2022-10-29T06:21:01.427Z,11.10
2022-10-29T06:23:32.916Z,11.07
2022-10-29T06:26:04.634Z,11.02
2022-10-29T06:28:34.729Z,10.99
2022-10-29T06:31:03.676Z,10.97
2022-10-29T06:33:32.398Z,10.97
2022-10-29T06:36:01.920Z,10.96
2022-10-29T06:38:30.278Z,10.96
2022-10-29T06:41:00.209Z,10.96
2022-10-29T06:43:28.901Z,10.95
2022-10-29T06:45:57.107Z,10.93
2022-10-29T06:48:25.343Z,10.92
2022-10-29T06:50:53.795Z,10.91
2022-10-29T06:53:22.517Z,10.90
2022-10-29T06:55:50.784Z,10.89
2022-10-29T06:58:22.258Z,10.85
2022-10-29T07:03:45.937Z,10.81
2022-10-29T07:06:18.017Z,10.77
2022-10-29T07:08:46.225Z,10.72
2022-10-29T07:11:15.437Z,10.69
2022-10-29T07:13:44.571Z,10.66
2022-10-29T07:16:13.316Z,10.65
2022-10-29T07:18:42.205Z,10.64
2022-10-29T07:21:10.941Z,10.63
2022-10-29T07:23:39.576Z,10.63
2022-10-29T07:26:08.102Z,10.61
2022-10-29T07:28:36.413Z,10.59
2022-10-29T07:31:04.735Z,10.55
2022-10-29T07:33:32.984Z,10.52
2022-10-29T07:36:01.334Z,10.49
2022-10-29T07:38:32.872Z,10.47
2022-10-29T07:41:01.883Z,10.45
2022-10-29T07:43:32.857Z,10.43
2022-10-29T07:46:04.381Z,10.43
2022-10-29T07:48:33.118Z,10.43
2022-10-29T07:51:02.783Z,10.42
2022-10-29T07:53:33.927Z,10.39
2022-10-29T07:56:02.877Z,10.36
2022-10-29T07:58:31.914Z,10.32
2022-10-29T08:01:01.683Z,10.28
2022-10-29T08:03:31.011Z,10.24
2022-10-29T08:06:03.088Z,10.18
2022-10-29T08:08:36.099Z,10.13
2022-10-29T08:11:06.044Z,10.10
2022-10-29T08:13:34.574Z,10.05
2022-10-29T08:16:03.021Z,10.01
2022-10-29T08:18:32.054Z,9.98
2022-10-29T08:21:04.319Z,9.93
2022-10-29T08:23:32.870Z,9.88
2022-10-29T08:26:04.634Z,9.85
2022-10-29T08:28:35.701Z,9.80
2022-10-29T08:31:04.719Z,9.78
2022-10-29T08:33:33.587Z,9.75
2022-10-29T08:36:02.341Z,9.73
2022-10-29T08:38:31.290Z,9.73
2022-10-29T08:41:50.794Z,9.74
2022-10-29T08:45:00.832Z,9.74
2022-10-29T08:47:31.859Z,9.73
2022-10-29T08:50:26.518Z,9.72
2022-10-29T08:53:21.894Z,9.74
2022-10-29T08:55:45.869Z,9.73
2022-10-29T08:58:23.003Z,9.72
2022-10-29T09:00:55.769Z,9.72
2022-10-29T09:03:25.338Z,9.70
2022-10-29T09:06:18.937Z,9.70
2022-10-29T09:09:16.489Z,9.69
2022-10-29T09:11:50.884Z,9.68
2022-10-29T09:14:36.778Z,9.67
2022-10-29T09:17:30.476Z,9.64
2022-10-29T09:20:28.034Z,9.61
2022-10-29T09:23:44.630Z,9.57
2022-10-29T09:26:32.307Z,9.52
2022-10-29T09:29:03.651Z,9.49
2022-10-29T09:31:43.353Z,9.48
2022-10-29T09:34:32.965Z,9.44
2022-10-29T09:37:06.026Z,9.42
2022-10-29T09:39:41.480Z,9.42
2022-10-29T09:42:14.127Z,9.42
2022-10-29T09:45:12.541Z,9.41
2022-10-29T09:47:57.610Z,9.39
2022-10-29T09:50:34.112Z,9.39
2022-10-29T09:53:03.262Z,9.40
2022-10-29T09:55:42.686Z,9.39
2022-10-29T09:58:43.772Z,9.39
2022-10-29T10:01:12.696Z,9.39
2022-10-29T10:03:56.834Z,9.36
2022-10-29T10:06:25.148Z,9.36
2022-10-29T10:09:07.555Z,9.36
2022-10-29T10:11:41.520Z,9.35
2022-10-29T10:14:21.823Z,9.33
2022-10-29T10:17:01.254Z,9.32
2022-10-29T10:19:32.825Z,9.30
2022-10-29T10:22:06.710Z,9.30
2022-10-29T10:24:37.879Z,9.30
2022-10-29T10:27:22.186Z,9.32
2022-10-29T10:30:06.760Z,9.33
2022-10-29T10:32:35.538Z,9.32
2022-10-29T10:35:03.973Z,9.30
2022-10-29T10:37:34.174Z,9.28
2022-10-29T10:40:06.936Z,9.27
2022-10-29T10:42:40.457Z,9.26
2022-10-29T10:45:25.115Z,9.24
2022-10-29T10:48:00.304Z,9.23
2022-10-29T10:50:35.002Z,9.22
2022-10-29T10:53:30.158Z,9.22
2022-10-29T10:55:59.079Z,9.22
2022-10-29T10:58:36.754Z,9.23
2022-10-29T11:01:07.593Z,9.25
2022-10-29T11:03:44.412Z,9.26
2022-10-29T11:06:41.330Z,9.28
2022-10-29T11:09:21.750Z,9.28
2022-10-29T11:12:08.445Z,9.28
2022-10-29T11:14:56.966Z,9.27
2022-10-29T11:17:30.361Z,9.27
2022-10-29T11:20:09.524Z,9.28
2022-10-29T11:23:06.829Z,9.28
2022-10-29T11:25:56.047Z,9.27
2022-10-29T11:28:42.527Z,9.27
2022-10-29T11:31:38.860Z,9.26
2022-10-29T11:34:17.415Z,9.27
2022-10-29T11:37:06.877Z,9.30
2022-10-29T11:39:53.416Z,9.33
2022-10-29T11:42:22.104Z,9.36
2022-10-29T11:44:50.905Z,9.38
2022-10-29T11:47:47.871Z,9.37
2022-10-29T11:50:33.074Z,9.35
2022-10-29T11:53:20.544Z,9.36
2022-10-29T11:56:24.647Z,9.36
2022-10-29T11:59:23.388Z,9.35
2022-10-29T12:02:22.875Z,9.31
2022-10-29T12:05:22.207Z,9.27
2022-10-29T12:08:22.954Z,9.22
2022-10-29T12:11:22.577Z,9.17
2022-10-29T12:13:57.306Z,9.13
2022-10-29T12:17:09.947Z,9.10
2022-10-29T12:19:43.260Z,9.05
2022-10-29T12:22:43.025Z,9.01
2022-10-29T12:25:41.819Z,8.96
2022-10-29T12:31:22.951Z,8.83
2022-10-29T12:34:32.562Z,8.80
2022-10-29T12:37:16.757Z,8.76
2022-10-29T12:40:17.041Z,8.74
2022-10-29T12:42:47.191Z,8.75
2022-10-29T12:45:43.439Z,8.78
2022-10-29T12:48:29.640Z,8.83
2022-10-29T12:51:19.293Z,8.89
2022-10-29T12:53:47.669Z,8.95
2022-10-29T12:56:17.768Z,8.99
2022-10-29T12:58:46.846Z,9.02
2022-10-29T13:01:49.960Z,9.04
2022-10-29T13:04:30.886Z,9.05
2022-10-29T13:07:22.698Z,9.04
2022-10-29T13:09:58.909Z,9.05
2022-10-29T13:13:06.472Z,9.07
2022-10-29T13:15:45.988Z,9.09
2022-10-29T13:18:14.598Z,9.11
2022-10-29T13:20:49.406Z,9.13
2022-10-29T13:23:24.333Z,9.14
2022-10-29T13:26:06.121Z,9.16
2022-10-29T13:28:37.278Z,9.16
2022-10-29T13:31:05.717Z,9.18
2022-10-29T13:33:34.089Z,9.21
2022-10-29T13:36:12.853Z,9.22
2022-10-29T13:39:07.854Z,9.21
2022-10-29T13:41:47.977Z,9.22
2022-10-29T13:44:26.005Z,9.24
2022-10-29T13:46:58.174Z,9.25
2022-10-29T13:49:30.535Z,9.27
2022-10-29T13:52:08.413Z,9.28
2022-10-29T13:54:36.715Z,9.29
2022-10-29T13:57:14.181Z,9.28
2022-10-29T13:59:59.155Z,9.27
2022-10-29T14:02:32.219Z,9.26
2022-10-29T14:05:30.973Z,9.27
2022-10-29T14:08:12.263Z,9.29
2022-10-29T14:10:43.644Z,9.29
2022-10-29T14:13:33.967Z,9.30
2022-10-29T14:16:08.757Z,9.29
2022-10-29T14:18:51.114Z,9.30
2022-10-29T14:21:23.507Z,9.31
2022-10-29T14:24:06.109Z,9.32
2022-10-29T14:26:37.937Z,9.33
2022-10-29T14:29:19.544Z,9.34
2022-10-29T14:31:49.874Z,9.35
2022-10-29T14:34:28.364Z,9.37
2022-10-29T14:37:06.593Z,9.40
2022-10-29T14:39:57.038Z,9.43
2022-10-29T14:42:38.659Z,9.46
2022-10-29T14:45:21.309Z,9.49
2022-10-29T14:47:54.823Z,9.52
2022-10-29T14:50:26.696Z,9.55
2022-10-29T14:53:02.249Z,9.58
2022-10-29T14:55:41.013Z,9.60
2022-10-29T14:58:21.742Z,9.61
2022-10-29T15:01:06.664Z,9.63
2022-10-29T15:03:37.274Z,9.65
2022-10-29T15:06:16.158Z,9.68
2022-10-29T15:08:57.608Z,9.70
2022-10-29T15:11:36.728Z,9.73
2022-10-29T15:14:25.083Z,9.76
2022-10-29T15:16:53.982Z,9.78
2022-10-29T15:19:23.891Z,9.81
2022-10-29T15:21:52.746Z,9.84
2022-10-29T15:24:25.525Z,9.87
2022-10-29T15:27:01.261Z,9.88
2022-10-29T15:29:39.273Z,9.89
2022-10-29T15:32:15.897Z,9.92
2022-10-29T15:34:57.024Z,9.94
2022-10-29T15:37:34.463Z,9.97
2022-10-29T15:40:06.346Z,10.02
2022-10-29T15:42:37.438Z,10.06
2022-10-29T15:45:08.834Z,10.08
2022-10-29T15:47:43.407Z,10.09
2022-10-29T15:50:15.074Z,10.11
2022-10-29T15:53:06.860Z,10.14
2022-10-29T15:55:41.477Z,10.17
2022-10-29T15:58:24.147Z,10.20
2022-10-29T16:00:53.114Z,10.22
2022-10-29T16:03:24.791Z,10.23
2022-10-29T16:06:00.630Z,10.23
2022-10-29T16:08:56.770Z,10.22
2022-10-29T16:11:26.301Z,10.16
2022-10-29T16:13:55.662Z,10.15
2022-10-29T16:16:26.286Z,10.14
2022-10-29T16:18:55.467Z,10.15
2022-10-29T16:21:26.010Z,10.16
2022-10-29T16:23:54.548Z,10.18
2022-10-29T16:26:25.843Z,10.18
2022-10-29T16:28:54.391Z,10.17
2022-10-29T16:31:25.458Z,10.20
2022-10-29T16:33:56.262Z,10.22
2022-10-29T16:36:25.603Z,10.23
2022-10-29T16:38:54.469Z,10.25
2022-10-29T16:41:23.599Z,10.25
2022-10-29T16:43:52.027Z,10.24
2022-10-29T16:46:20.511Z,10.26
2022-10-29T16:48:48.848Z,10.29
2022-10-29T16:51:17.171Z,10.33
2022-10-29T16:53:45.796Z,10.39
2022-10-29T16:56:14.382Z,10.42
2022-10-29T16:58:43.108Z,10.44
2022-10-29T17:01:12.189Z,10.47
2022-10-29T17:03:40.536Z,10.49
2022-10-29T17:06:10.740Z,10.49
2022-10-29T17:08:39.770Z,10.49
2022-10-29T17:11:11.228Z,10.50
2022-10-29T17:13:40.205Z,10.50
2022-10-29T17:16:17.847Z,10.52
2022-10-29T17:18:51.444Z,10.55
2022-10-29T17:21:20.116Z,10.57
2022-10-29T17:23:48.923Z,10.57
2022-10-29T17:26:17.805Z,10.54
2022-10-29T17:28:46.948Z,10.53
2022-10-29T17:31:15.574Z,10.54
2022-10-29T17:33:43.984Z,10.56
2022-10-29T17:36:14.816Z,10.58
2022-10-29T17:38:43.388Z,10.62
2022-10-29T17:41:11.773Z,10.67
2022-10-29T17:43:39.904Z,10.71
2022-10-29T17:46:08.126Z,10.74
2022-10-29T17:48:36.359Z,10.77
2022-10-29T17:51:04.772Z,10.80
2022-10-29T17:53:33.222Z,10.82
2022-10-29T17:56:02.734Z,10.86
2022-10-29T17:58:32.015Z,10.88
2022-10-29T18:01:08.597Z,10.90
2022-10-29T18:03:38.103Z,10.94
2022-10-29T18:06:09.326Z,10.98
2022-10-29T18:08:39.363Z,11.03
2022-10-29T18:11:21.441Z,11.09
2022-10-29T18:13:51.434Z,11.13
2022-10-29T18:16:22.437Z,11.17
2022-10-29T18:19:01.286Z,11.21
2022-10-29T18:21:30.527Z,11.28
2022-10-29T18:23:59.226Z,11.34
2022-10-29T18:26:32.502Z,11.43
2022-10-29T18:29:03.342Z,11.49
2022-10-29T18:31:33.307Z,11.55
2022-10-29T18:34:05.673Z,11.62
2022-10-29T18:36:36.279Z,11.69
2022-10-29T18:39:07.113Z,11.75
2022-10-29T18:41:36.881Z,11.82
2022-10-29T18:44:05.755Z,11.89
2022-10-29T18:46:34.960Z,11.96
2022-10-29T18:49:03.402Z,11.99
2022-10-29T18:51:33.851Z,12.03
2022-10-29T18:54:02.740Z,12.06
2022-10-29T18:56:34.349Z,12.06
2022-10-29T18:59:03.070Z,12.06
2022-10-29T19:01:35.208Z,12.07
2022-10-29T19:04:06.508Z,12.05
2022-10-29T19:06:39.081Z,12.05
2022-10-29T19:09:09.691Z,12.06
2022-10-29T19:11:38.762Z,12.06
2022-10-29T19:14:10.550Z,12.01
2022-10-29T19:16:41.942Z,11.96
2022-10-29T19:19:16.058Z,11.92
2022-10-29T19:21:46.759Z,11.87
2022-10-29T19:24:19.127Z,11.86
2022-10-29T19:26:47.444Z,11.90
2022-10-29T20:55:38.826Z,12.13
2022-10-29T20:58:07.361Z,12.15
2022-10-29T21:00:36.009Z,12.21
2022-10-29T21:03:04.453Z,12.28
2022-10-29T21:05:32.774Z,12.35
2022-10-29T21:08:03.721Z,12.39
2022-10-29T21:10:32.628Z,12.47
2022-10-29T21:13:05.389Z,12.55
2022-10-29T21:15:37.709Z,12.63
2022-10-29T21:18:06.797Z,12.71
2022-10-29T21:20:34.979Z,12.76
2022-10-29T21:23:03.942Z,12.83
2022-10-29T21:25:32.713Z,12.88
2022-10-29T21:28:04.190Z,12.93
2022-10-29T21:30:33.397Z,12.97
2022-10-29T21:33:02.245Z,12.99
2022-10-29T21:35:31.163Z,13.01
2022-10-29T21:40:42.330Z,13.01
2022-10-29T21:43:10.567Z,13.02
2022-10-29T21:45:39.581Z,13.05
2022-10-29T21:48:08.219Z,13.10
2022-10-29T21:50:37.214Z,13.12
2022-10-29T21:53:06.667Z,13.14
2022-10-29T21:55:36.136Z,13.16
2022-10-29T21:58:05.860Z,13.15
2022-10-29T22:00:34.770Z,13.13
2022-10-29T22:03:04.628Z,13.10
2022-10-29T22:05:33.541Z,13.06
2022-10-29T22:08:02.222Z,13.04
2022-10-29T22:10:31.306Z,13.04
2022-10-29T22:13:02.781Z,13.02
2022-10-29T22:15:31.755Z,13.01
2022-10-29T22:18:00.540Z,13.00
2022-10-29T22:20:29.152Z,13.01
2022-10-29T22:22:58.130Z,13.04
2022-10-29T22:25:26.826Z,13.05
2022-10-29T22:27:55.483Z,13.06
2022-10-29T22:30:23.990Z,13.09
2022-10-29T22:32:52.355Z,13.12
2022-10-29T22:35:21.354Z,13.16
2022-10-29T22:37:49.943Z,13.21
2022-10-29T22:40:18.463Z,13.26
2022-10-29T22:42:50.118Z,13.30
2022-10-29T22:45:19.089Z,13.31
2022-10-29T22:47:47.871Z,13.32
2022-10-29T22:50:16.009Z,13.33
2022-10-29T22:52:44.383Z,13.35
2022-10-29T22:55:13.387Z,13.38
2022-10-29T22:57:44.356Z,13.41
2022-10-29T23:00:13.782Z,13.43
2022-10-29T23:02:42.277Z,13.45
2022-10-29T23:05:11.075Z,13.49
2022-10-29T23:07:39.555Z,13.49
2022-10-29T23:10:08.559Z,13.50
2022-10-29T23:12:39.061Z,13.51
2022-10-29T23:15:09.462Z,13.51
2022-10-29T23:17:38.512Z,13.51
2022-10-29T23:20:07.163Z,13.48
2022-10-29T23:22:36.262Z,13.43
2022-10-29T23:25:04.920Z,13.40
2022-10-29T23:27:33.864Z,13.38
2022-10-29T23:30:03.083Z,13.39
2022-10-29T23:32:32.898Z,13.37
2022-10-29T23:35:01.585Z,13.35
2022-10-29T23:37:30.265Z,13.33
2022-10-29T23:40:01.037Z,13.32
2022-10-29T23:45:15.184Z,13.25
2022-10-29T23:47:43.828Z,13.18
2022-10-29T23:50:12.547Z,13.11
2022-10-29T23:52:41.372Z,13.01
2022-10-29T23:55:10.570Z,12.93
2022-10-29T23:57:39.410Z,12.87
